createdAt,value
2018-04-25T00:01:02.266Z,77.07
2018-04-25T00:03:29.843Z,77.33
2018-04-25T00:05:57.370Z,77.30
2018-04-25T00:08:25.002Z,77.13
2018-04-25T00:10:52.521Z,76.90
2018-04-25T00:13:20.078Z,76.84
2018-04-25T00:15:47.630Z,77.17
2018-04-25T00:18:15.206Z,77.30
2018-04-25T00:20:42.733Z,77.11
2018-04-25T00:23:10.363Z,79.01
2018-04-25T00:25:37.943Z,77.22
2018-04-25T00:28:05.471Z,78.01
2018-04-25T00:33:07.973Z,78.07
2018-04-25T00:35:35.526Z,77.40
2018-04-25T00:38:03.054Z,78.07
2018-04-25T00:40:30.602Z,78.24
2018-04-25T00:42:58.191Z,78.50
2018-04-25T00:45:25.866Z,79.75
2018-04-25T00:47:53.397Z,78.86
2018-04-25T00:50:20.935Z,78.98
2018-04-25T00:52:48.540Z,78.29
2018-04-25T00:55:16.203Z,78.25
2018-04-25T00:57:43.823Z,79.24
2018-04-25T01:00:11.393Z,79.49
2018-04-25T01:02:39.000Z,78.61
2018-04-25T01:05:06.526Z,80.51
2018-04-25T01:07:34.176Z,81.01
2018-04-25T01:10:01.774Z,80.06
2018-04-25T01:12:29.458Z,79.60
2018-04-25T01:14:57.083Z,79.65
2018-04-25T01:17:24.748Z,80.07
2018-04-25T01:19:52.313Z,80.63
2018-04-25T01:22:19.846Z,80.48
2018-04-25T01:24:47.420Z,80.64
2018-04-25T01:27:14.984Z,80.48
2018-04-25T01:29:43.374Z,79.82
2018-04-25T01:32:10.922Z,78.41
2018-04-25T01:34:42.278Z,79.14
2018-04-25T01:37:20.729Z,79.13
2018-04-25T01:39:52.654Z,81.48
2018-04-25T01:42:24.066Z,82.83
2018-04-25T01:44:58.411Z,81.15
2018-04-25T01:47:27.792Z,81.90
2018-04-25T01:53:10.143Z,81.26
2018-04-25T01:55:49.493Z,79.99
2018-04-25T01:58:28.915Z,80.27
2018-04-25T02:01:08.174Z,81.59
2018-04-25T02:03:45.447Z,81.06
2018-04-25T02:06:13.034Z,80.54
2018-04-25T02:08:40.657Z,80.41
2018-04-25T02:11:08.258Z,81.61
2018-04-25T02:13:35.808Z,80.97
2018-04-25T02:16:03.436Z,81.63
2018-04-25T02:18:36.063Z,80.65
2018-04-25T02:21:03.675Z,80.44
2018-04-25T02:23:31.217Z,79.98
2018-04-25T02:25:58.914Z,80.51
2018-04-25T02:28:26.443Z,80.30
2018-04-25T02:30:54.008Z,80.31
2018-04-25T02:33:21.530Z,80.18
2018-04-25T02:35:49.398Z,80.42
2018-04-25T02:38:17.001Z,81.03
2018-04-25T02:40:44.579Z,80.49
2018-04-25T02:43:12.231Z,79.88
2018-04-25T02:45:39.798Z,79.39
2018-04-25T02:48:07.391Z,81.18
2018-04-25T02:50:35.296Z,81.70
2018-04-25T02:53:02.860Z,83.25
2018-04-25T02:55:30.434Z,83.83
2018-04-25T02:57:58.000Z,83.26
2018-04-25T03:00:25.553Z,81.96
2018-04-25T03:02:53.153Z,80.85
2018-04-25T03:05:20.683Z,81.60
2018-04-25T03:07:48.238Z,81.26
2018-04-25T03:10:15.762Z,81.33
2018-04-25T03:12:43.344Z,79.95
2018-04-25T03:15:10.916Z,80.62
2018-04-25T03:17:38.470Z,80.05
2018-04-25T03:20:05.989Z,79.72
2018-04-25T03:22:33.629Z,79.92
2018-04-25T03:25:01.102Z,79.11
2018-04-25T03:27:28.676Z,79.55
2018-04-25T03:29:56.206Z,79.91
2018-04-25T03:32:23.781Z,80.29
2018-04-25T03:34:51.332Z,80.85
2018-04-25T03:37:18.914Z,80.42
2018-04-25T03:39:46.437Z,80.38
2018-04-25T03:42:14.009Z,81.43
2018-04-25T03:44:41.542Z,81.40
2018-04-25T03:47:09.122Z,80.52
2018-04-25T03:49:36.649Z,80.58
2018-04-25T03:52:04.256Z,80.91
2018-04-25T03:54:31.799Z,81.73
2018-04-25T03:56:59.330Z,81.57
2018-04-25T03:59:26.900Z,82.00
2018-04-25T04:01:54.455Z,82.56
2018-04-25T04:04:22.010Z,83.24
2018-04-25T04:06:49.543Z,83.46
2018-04-25T04:09:17.144Z,82.61
2018-04-25T04:11:44.666Z,82.61
2018-04-25T04:14:15.520Z,83.11
2018-04-25T04:16:43.237Z,82.60
2018-04-25T04:19:10.826Z,84.29
2018-04-25T04:21:38.372Z,82.76
2018-04-25T04:24:06.571Z,83.58
2018-04-25T04:26:34.131Z,84.30
2018-04-25T04:29:01.709Z,83.49
2018-04-25T04:31:29.232Z,83.40
2018-04-25T04:33:56.796Z,84.16
2018-04-25T04:36:24.336Z,82.89
2018-04-25T04:38:51.917Z,82.56
2018-04-25T04:41:19.487Z,82.72
2018-04-25T04:43:47.070Z,82.65
2018-04-25T04:46:14.681Z,82.99
2018-04-25T04:48:42.248Z,82.40
2018-04-25T04:51:09.815Z,82.96
2018-04-25T04:53:37.430Z,82.76
2018-04-25T04:56:04.955Z,82.06
2018-04-25T04:58:32.697Z,81.94
2018-04-25T05:01:00.210Z,81.42
2018-04-25T05:03:27.763Z,81.33
2018-04-25T05:05:55.366Z,81.05
2018-04-25T05:08:23.111Z,80.76
2018-04-25T05:10:50.668Z,81.03
2018-04-25T05:13:18.222Z,81.27
2018-04-25T05:15:45.775Z,81.77
2018-04-25T05:18:13.327Z,80.85
2018-04-25T05:20:40.938Z,81.14
2018-04-25T05:23:08.530Z,81.16
2018-04-25T05:25:36.080Z,81.86
2018-04-25T05:28:03.837Z,81.83
2018-04-25T05:30:31.666Z,82.13
2018-04-25T05:32:59.587Z,81.21
2018-04-25T05:35:27.165Z,80.60
2018-04-25T05:37:54.693Z,80.61
2018-04-25T05:40:23.598Z,80.52
2018-04-25T05:42:51.219Z,79.48
2018-04-25T05:45:18.753Z,78.17
2018-04-25T05:47:46.269Z,77.70
2018-04-25T05:50:13.830Z,77.54
2018-04-25T05:52:41.355Z,77.74
2018-04-25T05:55:08.906Z,77.04
2018-04-25T05:57:36.447Z,76.24
2018-04-25T06:00:04.059Z,76.02
2018-04-25T06:02:31.638Z,75.86
2018-04-25T06:04:59.186Z,76.55
2018-04-25T06:07:26.750Z,76.96
2018-04-25T06:09:54.645Z,76.76
2018-04-25T06:12:22.239Z,76.70
2018-04-25T06:14:49.750Z,76.45
2018-04-25T06:17:17.279Z,76.11
2018-04-25T06:19:44.935Z,76.42
2018-04-25T06:22:12.405Z,74.99
2018-04-25T06:24:39.961Z,75.13
2018-04-25T06:27:07.905Z,75.47
2018-04-25T06:29:35.467Z,75.19
2018-04-25T06:32:03.024Z,74.68
2018-04-25T06:34:30.638Z,74.59
2018-04-25T06:36:58.228Z,74.41
2018-04-25T06:39:25.931Z,74.37
2018-04-25T06:41:55.560Z,74.38
2018-04-25T06:44:24.914Z,74.51
2018-04-25T06:46:52.476Z,74.45
2018-04-25T06:49:20.052Z,74.04
2018-04-25T06:51:47.709Z,74.36
2018-04-25T06:54:15.290Z,73.78
2018-04-25T06:56:42.857Z,73.86
2018-04-25T06:59:10.478Z,74.37
2018-04-25T07:01:38.734Z,74.09
2018-04-25T07:04:06.322Z,73.83
2018-04-25T07:06:33.871Z,74.14
2018-04-25T07:09:01.427Z,73.52
2018-04-25T07:11:29.002Z,74.41
2018-04-25T07:13:56.527Z,73.88
2018-04-25T07:16:24.227Z,74.15
2018-04-25T07:18:51.760Z,74.37
2018-04-25T07:21:19.335Z,74.12
2018-04-25T07:23:46.906Z,74.12
2018-04-25T07:26:15.092Z,73.62
2018-04-25T07:28:42.703Z,73.22
2018-04-25T07:31:10.589Z,73.68
2018-04-25T07:33:38.975Z,73.21
2018-04-25T07:36:06.556Z,72.77
2018-04-25T07:38:34.103Z,73.15
2018-04-25T07:41:01.661Z,72.87
2018-04-25T07:43:29.207Z,72.00
2018-04-25T07:45:56.778Z,72.01
2018-04-25T07:48:24.309Z,72.24
2018-04-25T07:50:51.865Z,71.53
2018-04-25T07:53:19.447Z,70.86
2018-04-25T07:55:47.017Z,71.58
2018-04-25T07:58:14.569Z,71.01
2018-04-25T08:00:42.227Z,72.12
2018-04-25T08:03:09.888Z,71.86
2018-04-25T08:05:37.446Z,71.83
2018-04-25T08:08:04.977Z,72.33
2018-04-25T08:10:32.554Z,71.95
2018-04-25T08:13:11.849Z,72.52
2018-04-25T08:15:51.340Z,73.15
2018-04-25T08:18:30.735Z,72.71
2018-04-25T08:24:11.919Z,73.70
2018-04-25T08:26:39.495Z,73.92
2018-04-25T08:29:07.098Z,74.03
2018-04-25T08:31:35.073Z,73.94
2018-04-25T08:34:03.350Z,73.67
2018-04-25T08:36:31.322Z,73.51
2018-04-25T08:38:58.871Z,73.35
2018-04-25T08:41:27.232Z,73.20
2018-04-25T08:43:57.503Z,73.65
2018-04-25T08:46:25.337Z,72.77
2018-04-25T08:48:53.139Z,72.48
2018-04-25T08:51:23.187Z,72.14
2018-04-25T08:53:50.918Z,71.55
2018-04-25T08:56:19.621Z,70.69
2018-04-25T08:58:49.173Z,70.10
2018-04-25T09:01:16.860Z,69.85
2018-04-25T09:03:44.493Z,69.61
2018-04-25T09:06:13.695Z,68.73
2018-04-25T09:08:43.077Z,68.70
2018-04-25T09:11:10.952Z,68.47
2018-04-25T09:13:39.813Z,68.35
2018-04-25T09:16:08.164Z,68.60
2018-04-25T09:18:38.200Z,68.34
2018-04-25T09:21:06.143Z,68.69
2018-04-25T09:23:33.997Z,68.37
2018-04-25T09:26:01.573Z,68.20
2018-04-25T09:28:29.102Z,68.34
2018-04-25T09:30:56.649Z,68.33
2018-04-25T09:33:24.514Z,68.36
2018-04-25T09:35:52.053Z,68.12
2018-04-25T09:38:20.158Z,68.19
2018-04-25T09:40:48.013Z,68.15
2018-04-25T09:43:18.561Z,68.21
2018-04-25T09:45:46.601Z,68.85
2018-04-25T09:48:19.737Z,68.58
2018-04-25T09:50:47.831Z,68.63
2018-04-25T09:53:15.421Z,68.22
2018-04-25T09:55:43.327Z,68.39
2018-04-25T09:58:10.893Z,68.65
2018-04-25T10:00:44.080Z,68.75
2018-04-25T10:03:17.630Z,67.73
2018-04-25T10:05:45.234Z,67.12
2018-04-25T10:08:12.890Z,67.07
2018-04-25T10:10:40.484Z,66.04
2018-04-25T10:13:11.398Z,66.09
2018-04-25T10:15:39.662Z,65.26
2018-04-25T10:18:07.221Z,64.87
2018-04-25T10:20:38.395Z,64.31
2018-04-25T10:23:06.227Z,64.09
2018-04-25T10:25:34.046Z,64.59
2018-04-25T10:28:03.420Z,64.27
2018-04-25T10:30:32.935Z,64.51
2018-04-25T10:33:02.512Z,64.63
2018-04-25T10:35:30.994Z,64.82
2018-04-25T10:37:58.536Z,65.20
2018-04-25T10:40:28.325Z,65.69
2018-04-25T10:42:56.419Z,65.91
2018-04-25T10:45:23.964Z,66.33
2018-04-25T10:47:51.538Z,66.11
2018-04-25T10:50:19.108Z,66.08
2018-04-25T10:52:47.081Z,66.32
2018-04-25T10:55:14.799Z,66.17
2018-04-25T10:57:42.558Z,66.37
2018-04-25T11:00:10.148Z,65.84
2018-04-25T11:02:37.766Z,66.07
2018-04-25T11:05:05.356Z,66.30
2018-04-25T11:07:32.910Z,66.85
2018-04-25T11:10:00.443Z,67.05
2018-04-25T11:12:27.994Z,67.45
2018-04-25T11:14:55.520Z,66.87
2018-04-25T11:17:23.085Z,66.10
2018-04-25T11:19:50.625Z,65.96
2018-04-25T11:22:18.201Z,64.92
2018-04-25T11:24:45.715Z,64.83
2018-04-25T11:27:13.253Z,65.62
2018-04-25T11:29:40.880Z,66.25
2018-04-25T11:32:08.438Z,65.98
2018-04-25T11:34:35.986Z,65.86
2018-04-25T11:37:03.508Z,66.56
2018-04-25T11:39:31.067Z,65.82
2018-04-25T11:41:58.620Z,65.66
2018-04-25T11:44:31.048Z,65.45
2018-04-25T11:47:01.220Z,64.87
2018-04-25T11:49:28.812Z,64.59
2018-04-25T11:51:57.146Z,64.77
2018-04-25T11:54:25.033Z,64.32
2018-04-25T11:56:52.557Z,64.44
2018-04-25T11:59:20.110Z,63.23
2018-04-25T12:01:47.639Z,64.26
2018-04-25T12:04:15.214Z,64.97
2018-04-25T12:06:42.747Z,65.28
2018-04-25T12:09:10.339Z,65.29
2018-04-25T12:11:37.893Z,65.33
2018-04-25T12:14:05.445Z,65.96
2018-04-25T12:16:33.000Z,66.34
2018-04-25T12:19:00.597Z,67.03
2018-04-25T12:21:28.133Z,66.37
2018-04-25T12:23:55.685Z,66.64
2018-04-25T12:26:23.246Z,66.17
2018-04-25T12:28:50.914Z,66.32
2018-04-25T12:31:18.637Z,64.69
2018-04-25T12:33:46.236Z,65.07
2018-04-25T12:36:13.968Z,65.18
2018-04-25T12:38:43.278Z,64.97
2018-04-25T12:41:11.273Z,64.23
2018-04-25T12:43:40.153Z,63.86
2018-04-25T12:46:08.502Z,63.01
2018-04-25T12:48:38.253Z,63.52
2018-04-25T12:51:08.156Z,63.89
2018-04-25T12:53:36.710Z,63.52
2018-04-25T12:56:04.387Z,62.27
2018-04-25T12:58:32.132Z,62.55
2018-04-25T13:01:00.667Z,62.11
2018-04-25T13:03:28.929Z,61.78
2018-04-25T13:05:57.195Z,61.09
2018-04-25T13:08:25.162Z,60.69
2018-04-25T13:10:53.250Z,60.27
2018-04-25T13:13:24.925Z,60.80
2018-04-25T13:15:53.443Z,60.88
2018-04-25T13:18:21.181Z,60.13
2018-04-25T13:20:48.738Z,60.43
2018-04-25T13:23:16.337Z,59.89
2018-04-25T13:25:44.361Z,57.67
2018-04-25T13:28:17.543Z,58.56
2018-04-25T13:30:46.470Z,58.12
2018-04-25T13:33:16.717Z,57.11
2018-04-25T13:35:47.175Z,56.29
2018-04-25T13:38:14.739Z,57.54
2018-04-25T13:40:44.801Z,58.44
2018-04-25T13:43:17.157Z,58.12
2018-04-25T13:45:45.693Z,58.10
2018-04-25T13:48:13.851Z,56.77
2018-04-25T13:50:43.372Z,55.60
2018-04-25T13:53:11.911Z,56.53
2018-04-25T13:55:41.093Z,54.18
2018-04-25T13:58:11.693Z,54.42
2018-04-25T14:00:44.002Z,54.18
2018-04-25T14:03:13.142Z,53.09
2018-04-25T14:05:42.059Z,53.61
2018-04-25T14:08:11.963Z,52.40
2018-04-25T14:10:40.127Z,52.90
2018-04-25T14:13:08.562Z,53.71
2018-04-25T14:15:36.726Z,53.53
2018-04-25T14:18:04.525Z,54.94
2018-04-25T14:20:33.062Z,55.74
2018-04-25T14:23:01.507Z,55.58
2018-04-25T14:25:29.133Z,52.51
2018-04-25T14:27:56.642Z,52.47
2018-04-25T14:30:24.285Z,52.00
2018-04-25T14:32:52.321Z,51.17
2018-04-25T14:35:21.342Z,51.59
2018-04-25T14:37:50.437Z,50.10
2018-04-25T14:40:18.326Z,50.61
2018-04-25T14:42:45.857Z,50.34
2018-04-25T14:45:13.405Z,49.95
2018-04-25T14:47:41.961Z,50.93
2018-04-25T14:50:10.542Z,52.44
2018-04-25T14:52:38.158Z,53.30
2018-04-25T14:55:05.721Z,54.48
2018-04-25T14:57:33.242Z,55.50
2018-04-25T15:00:00.948Z,58.05
2018-04-25T15:02:28.500Z,59.74
2018-04-25T15:04:56.150Z,60.87
2018-04-25T15:07:23.720Z,61.28
2018-04-25T15:09:51.284Z,61.60
2018-04-25T15:12:18.833Z,62.08
2018-04-25T15:14:46.366Z,63.64
2018-04-25T15:17:13.943Z,64.37
2018-04-25T15:19:41.493Z,64.66
2018-04-25T15:22:09.075Z,64.84
2018-04-25T15:24:36.737Z,64.92
2018-04-25T15:27:04.504Z,65.54
2018-04-25T15:29:33.184Z,68.75
2018-04-25T15:32:00.848Z,70.48
2018-04-25T15:34:28.413Z,71.42
2018-04-25T15:36:56.079Z,72.95
2018-04-25T15:39:26.403Z,73.72
2018-04-25T15:41:56.177Z,74.17
2018-04-25T15:44:24.726Z,75.20
2018-04-25T15:46:52.432Z,76.60
2018-04-25T15:49:20.216Z,79.55
2018-04-25T15:51:48.006Z,80.69
2018-04-25T15:54:17.454Z,82.09
2018-04-25T15:56:47.458Z,82.65
2018-04-25T15:59:15.163Z,83.11
2018-04-25T16:01:45.464Z,84.55
2018-04-25T16:04:14.055Z,83.89
2018-04-25T16:06:45.263Z,84.18
2018-04-25T16:09:14.367Z,84.33
2018-04-25T16:11:41.878Z,85.27
2018-04-25T16:14:11.565Z,85.34
2018-04-25T16:16:40.166Z,84.00
2018-04-25T16:19:08.494Z,84.91
2018-04-25T16:21:36.004Z,85.21
2018-04-25T16:24:05.522Z,84.70
2018-04-25T16:26:34.175Z,84.75
2018-04-25T16:29:01.725Z,85.20
2018-04-25T16:31:32.559Z,84.33
2018-04-25T16:34:02.725Z,84.00
2018-04-25T16:36:30.791Z,84.72
2018-04-25T16:38:59.085Z,86.54
2018-04-25T16:41:28.950Z,84.75
2018-04-25T16:43:56.620Z,84.67
2018-04-25T16:46:25.602Z,84.16
2018-04-25T16:48:56.673Z,84.09
2018-04-25T16:51:27.045Z,83.64
2018-04-25T16:53:57.017Z,83.33
2018-04-25T16:56:24.556Z,80.56
2018-04-25T16:58:53.354Z,81.06
2018-04-25T17:01:22.305Z,80.13
2018-04-25T17:03:52.003Z,80.11
2018-04-25T17:06:19.848Z,80.75
2018-04-25T17:08:47.911Z,80.46
2018-04-25T17:11:16.974Z,80.85
2018-04-25T17:13:46.482Z,79.78
2018-04-25T17:16:18.652Z,80.81
2018-04-25T17:18:49.285Z,80.47
2018-04-25T17:21:17.981Z,80.07
2018-04-25T17:23:46.670Z,80.01
2018-04-25T17:26:15.490Z,80.07
2018-04-25T17:28:44.494Z,81.44
2018-04-25T17:31:14.542Z,81.97
2018-04-25T17:33:42.862Z,81.82
2018-04-25T17:36:10.717Z,82.08
2018-04-25T17:38:38.441Z,83.20
2018-04-25T17:41:06.314Z,82.33
2018-04-25T17:43:34.178Z,82.72
2018-04-25T17:46:02.917Z,84.17
2018-04-25T17:48:30.821Z,83.13
2018-04-25T17:51:00.377Z,84.74
2018-04-25T17:53:31.037Z,84.31
2018-04-25T17:55:58.656Z,83.85
2018-04-25T17:58:26.334Z,84.53
2018-04-25T18:00:54.139Z,84.70
2018-04-25T18:03:21.740Z,84.99
2018-04-25T18:05:49.264Z,85.13
2018-04-25T18:08:16.812Z,84.65
2018-04-25T18:10:44.367Z,85.58
2018-04-25T18:13:11.898Z,86.18
2018-04-25T18:15:39.822Z,86.47
2018-04-25T18:18:07.375Z,86.70
2018-04-25T18:20:34.932Z,86.31
2018-04-25T18:23:02.453Z,85.87
2018-04-25T18:25:30.000Z,86.56
2018-04-25T18:27:57.534Z,88.41
2018-04-25T18:30:25.142Z,86.88
2018-04-25T18:32:52.663Z,87.05
2018-04-25T18:35:20.214Z,87.55
2018-04-25T18:37:47.725Z,87.93
2018-04-25T18:40:15.270Z,86.92
2018-04-25T18:42:43.347Z,86.84
2018-04-25T18:45:11.119Z,86.44
2018-04-25T18:47:38.654Z,86.76
2018-04-25T18:50:06.213Z,87.42
2018-04-25T18:52:33.762Z,86.56
2018-04-25T18:55:02.240Z,86.32
2018-04-25T18:57:30.092Z,87.10
2018-04-25T19:00:09.812Z,85.23
2018-04-25T19:02:37.339Z,85.00
2018-04-25T19:05:04.963Z,85.39
2018-04-25T19:07:32.621Z,84.98
2018-04-25T19:10:00.227Z,85.66
2018-04-25T19:12:27.723Z,85.41
2018-04-25T19:14:55.402Z,85.30
2018-04-25T19:17:22.975Z,85.68
2018-04-25T19:19:51.531Z,85.70
2018-04-25T19:22:19.850Z,86.00
2018-04-25T19:24:47.484Z,85.65
2018-04-25T19:27:15.026Z,86.64
2018-04-25T19:29:43.461Z,86.79
2018-04-25T19:32:11.023Z,87.21
2018-04-25T19:34:38.643Z,86.75
2018-04-25T19:37:06.215Z,86.68
2018-04-25T19:39:33.754Z,86.75
2018-04-25T19:42:01.318Z,86.20
2018-04-25T19:44:28.876Z,86.62
2018-04-25T19:46:56.433Z,87.43
2018-04-25T19:49:24.001Z,87.22
2018-04-25T19:51:51.546Z,87.56
2018-04-25T19:54:21.861Z,86.86
2018-04-25T19:56:49.563Z,86.65
2018-04-25T19:59:17.166Z,86.63
2018-04-25T20:01:45.763Z,86.94
2018-04-25T20:04:15.289Z,86.54
2018-04-25T20:06:43.651Z,86.82
2018-04-25T20:09:11.229Z,86.80
2018-04-25T20:11:38.793Z,87.39
2018-04-25T20:14:06.346Z,87.34
2018-04-25T20:16:33.904Z,87.77
2018-04-25T20:19:01.463Z,87.02
2018-04-25T20:21:29.087Z,87.16
2018-04-25T20:23:56.703Z,86.72
2018-04-25T20:26:24.349Z,86.20
2018-04-25T20:28:51.888Z,86.02
2018-04-25T20:31:19.446Z,86.78
2018-04-25T20:33:46.973Z,86.48
2018-04-25T20:36:14.606Z,87.35
2018-04-25T20:38:42.254Z,87.03
2018-04-25T20:41:09.807Z,87.39
2018-04-25T20:43:37.415Z,87.61
2018-04-25T20:46:05.032Z,88.06
2018-04-25T20:48:32.760Z,87.33
2018-04-25T20:51:00.462Z,87.62
2018-04-25T20:53:28.016Z,87.47
2018-04-25T20:55:57.042Z,87.45
2018-04-25T20:58:24.615Z,87.06
2018-04-25T21:00:52.151Z,87.38
2018-04-25T21:03:21.425Z,87.38
2018-04-25T21:05:49.101Z,88.29
2018-04-25T21:08:17.007Z,88.40
2018-04-25T21:10:45.495Z,88.38
2018-04-25T21:13:14.533Z,88.71
2018-04-25T21:15:42.485Z,88.94
2018-04-25T21:18:10.860Z,88.83
2018-04-25T21:20:40.965Z,88.71
2018-04-25T21:23:08.798Z,89.60
2018-04-25T21:25:36.317Z,89.90
2018-04-25T21:28:03.940Z,88.79
2018-04-25T21:30:35.176Z,88.35
2018-04-25T21:33:03.501Z,88.51
2018-04-25T21:35:31.162Z,88.64
2018-04-25T21:37:58.729Z,88.35
2018-04-25T21:40:26.269Z,89.09
2018-04-25T21:42:53.838Z,89.63
2018-04-25T21:45:23.059Z,88.78
2018-04-25T21:47:52.829Z,88.36
2018-04-25T21:50:21.659Z,88.30
2018-04-25T21:52:49.312Z,88.10
2018-04-25T21:55:19.941Z,88.02
2018-04-25T21:57:47.834Z,87.86
2018-04-25T22:00:15.725Z,88.87
2018-04-25T22:02:44.145Z,89.80
2018-04-25T22:05:11.685Z,89.80
2018-04-25T22:07:39.367Z,89.39
2018-04-25T22:10:06.884Z,90.44
2018-04-25T22:12:34.467Z,90.36
2018-04-25T22:15:02.052Z,90.39
2018-04-25T22:17:29.589Z,90.96
2018-04-25T22:19:58.709Z,90.95
2018-04-25T22:22:26.567Z,90.25
2018-04-25T22:24:55.353Z,90.40
2018-04-25T22:27:23.809Z,90.27
2018-04-25T22:29:51.850Z,91.07
2018-04-25T22:32:20.456Z,92.02
2018-04-25T22:34:50.112Z,92.42
2018-04-25T22:37:17.687Z,92.95
2018-04-25T22:39:45.239Z,92.66
2018-04-25T22:42:12.813Z,91.99
2018-04-25T22:44:40.358Z,91.24
2018-04-25T22:47:07.998Z,91.22
2018-04-25T22:49:39.338Z,90.83
2018-04-25T22:52:10.993Z,89.96
2018-04-25T22:54:41.975Z,90.87
2018-04-25T22:57:10.854Z,90.51
2018-04-25T22:59:38.426Z,90.82
2018-04-25T23:02:06.049Z,89.61
2018-04-25T23:04:34.181Z,89.21
2018-04-25T23:07:01.736Z,88.99
2018-04-25T23:09:29.445Z,88.80
2018-04-25T23:11:57.055Z,88.89
2018-04-25T23:14:24.666Z,89.04
2018-04-25T23:16:52.195Z,88.14
2018-04-25T23:19:19.771Z,87.34
2018-04-25T23:21:47.298Z,87.21
2018-04-25T23:24:14.873Z,86.87
2018-04-25T23:26:42.462Z,87.29
2018-04-25T23:29:10.129Z,87.21
2018-04-25T23:31:37.684Z,87.64
2018-04-25T23:34:05.235Z,88.35
2018-04-25T23:36:32.802Z,88.21
2018-04-25T23:39:00.468Z,88.19
2018-04-25T23:41:27.990Z,87.12
2018-04-25T23:43:55.543Z,86.94
2018-04-25T23:46:23.068Z,86.35
2018-04-25T23:48:50.622Z,86.42
2018-04-25T23:51:18.272Z,86.13
2018-04-25T23:53:45.848Z,85.80
2018-04-25T23:56:14.276Z,85.81
2018-04-25T23:58:41.809Z,86.43
